createdAt,value
2019-01-05T00:01:27.695Z,1.00
2019-01-05T00:04:08.156Z,1.10
2019-01-05T00:06:54.640Z,1.10
2019-01-05T00:09:45.653Z,1.10
2019-01-05T00:12:35.773Z,1.10
2019-01-05T00:15:39.307Z,1.10
2019-01-05T00:18:27.458Z,1.10
2019-01-05T00:21:34.488Z,1.10
2019-01-05T00:24:21.332Z,1.00
2019-01-05T00:27:08.232Z,1.00
2019-01-05T00:30:01.212Z,1.10
2019-01-05T00:32:48.191Z,1.20
2019-01-05T00:35:43.071Z,1.20
2019-01-05T00:38:26.420Z,1.20
2019-01-05T00:41:11.984Z,1.10
2019-01-05T00:43:51.041Z,1.00
2019-01-05T00:46:48.512Z,1.00
2019-01-05T00:49:40.241Z,1.20
2019-01-05T00:52:27.393Z,1.20
2019-01-05T00:55:10.145Z,1.20
2019-01-05T00:57:57.007Z,1.20
2019-01-05T01:00:44.085Z,1.20
2019-01-05T01:03:36.745Z,1.20
2019-01-05T01:06:24.740Z,1.30
2019-01-05T01:09:21.540Z,1.30
2019-01-05T01:12:08.498Z,1.30
2019-01-05T01:15:03.673Z,1.30
2019-01-05T01:17:49.512Z,1.40
2019-01-05T01:20:36.508Z,1.50
2019-01-05T01:23:24.786Z,1.50
2019-01-05T01:26:04.926Z,1.50
2019-01-05T01:28:52.365Z,1.50
2019-01-05T01:31:39.110Z,1.40
2019-01-05T01:34:24.139Z,1.40
2019-01-05T01:37:11.956Z,1.40
2019-01-05T01:40:02.360Z,1.40
2019-01-05T01:42:56.249Z,1.50
2019-01-05T01:45:48.993Z,1.60
2019-01-05T01:48:44.137Z,1.50
2019-01-05T01:51:33.138Z,1.40
2019-01-05T01:54:21.185Z,1.50
2019-01-05T01:57:12.409Z,1.40
2019-01-05T02:00:07.786Z,1.40
2019-01-05T02:03:05.696Z,1.40
2019-01-05T02:06:05.468Z,1.40
2019-01-05T02:08:57.004Z,1.40
2019-01-05T02:11:50.521Z,1.40
2019-01-05T02:15:00.826Z,1.40
2019-01-05T02:18:03.890Z,1.40
2019-01-05T02:21:08.410Z,1.40
2019-01-05T02:24:51.700Z,1.40
2019-01-05T02:28:03.325Z,1.40
2019-01-05T02:31:44.915Z,1.40
2019-01-05T02:35:28.748Z,1.40
2019-01-05T02:38:56.774Z,1.30
2019-01-05T02:42:34.567Z,1.40
2019-01-05T02:45:56.204Z,1.40
2019-01-05T02:49:06.149Z,1.30
2019-01-05T02:52:27.353Z,1.30
2019-01-05T02:55:32.694Z,1.40
2019-01-05T02:59:02.253Z,1.40
2019-01-05T03:02:36.102Z,1.40
2019-01-05T03:05:58.807Z,1.30
2019-01-05T03:09:41.252Z,1.30
2019-01-05T03:13:08.743Z,1.30
2019-01-05T03:16:40.096Z,1.20
2019-01-05T03:20:03.935Z,1.30
2019-01-05T03:23:34.709Z,1.20
2019-01-05T03:27:27.733Z,1.20
2019-01-05T03:31:09.090Z,1.20
2019-01-05T03:34:38.182Z,1.30
2019-01-05T03:38:11.361Z,1.30
2019-01-05T03:41:26.861Z,1.30
2019-01-05T03:45:04.342Z,1.40
2019-01-05T03:48:30.289Z,1.40
2019-01-05T03:52:10.991Z,1.40
2019-01-05T03:55:31.629Z,1.40
2019-01-05T03:59:04.852Z,1.40
2019-01-05T04:02:29.920Z,1.40
2019-01-05T04:05:54.133Z,1.40
2019-01-05T04:09:15.666Z,1.40
2019-01-05T04:12:26.026Z,1.30
2019-01-05T04:16:01.052Z,1.10
2019-01-05T04:19:29.717Z,1.10
2019-01-05T04:22:39.706Z,1.20
2019-01-05T04:25:58.968Z,1.20
2019-01-05T04:29:35.925Z,1.10
2019-01-05T04:33:13.850Z,1.10
2019-01-05T04:36:28.427Z,1.10
2019-01-05T04:40:02.308Z,1.10
2019-01-05T04:43:29.380Z,1.20
2019-01-05T04:47:24.504Z,1.20
2019-01-05T04:50:46.863Z,1.20
2019-01-05T04:54:09.792Z,1.30
2019-01-05T04:57:31.124Z,1.30
2019-01-05T05:01:03.530Z,1.30
2019-01-05T05:04:25.186Z,1.30
2019-01-05T05:07:35.729Z,1.30
2019-01-05T05:10:58.670Z,1.20
2019-01-05T05:14:12.917Z,1.20
2019-01-05T05:17:34.338Z,1.10
2019-01-05T05:20:46.799Z,1.00
2019-01-05T05:24:24.604Z,0.90
2019-01-05T05:27:57.206Z,0.90
2019-01-05T05:31:29.597Z,0.90
2019-01-05T05:34:37.389Z,0.80
2019-01-05T05:38:19.108Z,0.80
2019-01-05T05:42:12.417Z,0.80
2019-01-05T05:45:26.963Z,0.80
2019-01-05T05:48:43.780Z,0.80
2019-01-05T05:52:01.220Z,0.90
2019-01-05T05:55:50.294Z,0.90
2019-01-05T05:59:21.508Z,0.80
2019-01-05T06:03:13.867Z,0.90
2019-01-05T06:06:54.915Z,0.90
2019-01-05T06:10:21.048Z,0.90
2019-01-05T06:13:54.158Z,0.90
2019-01-05T06:17:54.938Z,0.90
2019-01-05T06:21:15.108Z,1.00
2019-01-05T06:24:37.224Z,1.00
2019-01-05T06:28:18.732Z,1.00
2019-01-05T06:31:59.864Z,1.10
2019-01-05T06:35:07.353Z,1.10
2019-01-05T06:38:17.616Z,1.10
2019-01-05T06:41:57.259Z,1.10
2019-01-05T06:45:20.737Z,1.10
2019-01-05T06:48:53.729Z,1.10
2019-01-05T06:52:01.805Z,1.10
2019-01-05T06:55:35.313Z,1.10
2019-01-05T06:59:07.476Z,1.10
2019-01-05T07:02:40.956Z,1.20
2019-01-05T07:05:47.961Z,1.20
2019-01-05T07:09:20.745Z,1.20
2019-01-05T07:12:32.709Z,1.10
2019-01-05T07:16:00.582Z,1.20
2019-01-05T07:19:44.264Z,1.20
2019-01-05T07:23:14.548Z,1.10
2019-01-05T07:27:16.369Z,1.10
2019-01-05T07:30:49.058Z,1.20
2019-01-05T07:34:20.481Z,1.20
2019-01-05T07:38:04.824Z,1.20
2019-01-05T07:41:37.458Z,1.20
2019-01-05T07:45:23.751Z,1.20
2019-01-05T07:48:46.472Z,1.20
2019-01-05T07:52:22.586Z,1.20
2019-01-05T07:55:57.399Z,1.20
2019-01-05T07:59:29.701Z,1.30
2019-01-05T08:02:40.978Z,1.30
2019-01-05T08:06:17.471Z,1.20
2019-01-05T08:09:45.320Z,1.20
2019-01-05T08:13:20.261Z,1.30
2019-01-05T08:16:47.544Z,1.40
2019-01-05T08:20:24.161Z,1.50
2019-01-05T08:23:44.284Z,1.50
2019-01-05T08:27:33.061Z,1.40
2019-01-05T08:31:18.228Z,1.40
2019-01-05T08:34:41.997Z,1.50
2019-01-05T08:38:25.269Z,1.50
2019-01-05T08:42:08.927Z,1.60
2019-01-05T08:45:54.798Z,1.60
2019-01-05T08:49:23.017Z,1.50
2019-01-05T08:53:09.245Z,1.50
2019-01-05T08:56:37.699Z,1.60
2019-01-05T09:00:16.070Z,1.50
2019-01-05T09:03:56.432Z,1.60
2019-01-05T09:07:09.816Z,1.60
2019-01-05T09:10:37.328Z,1.70
2019-01-05T09:14:00.297Z,1.80
2019-01-05T09:17:44.138Z,1.70
2019-01-05T09:20:57.696Z,1.70
2019-01-05T09:24:20.959Z,1.70
2019-01-05T09:27:47.535Z,1.60
2019-01-05T09:31:05.033Z,1.60
2019-01-05T09:34:28.101Z,1.60
2019-01-05T09:37:55.273Z,1.60
2019-01-05T09:40:54.028Z,1.60
2019-01-05T09:44:37.021Z,1.60
2019-01-05T09:48:17.405Z,1.60
2019-01-05T09:51:57.645Z,1.60
2019-01-05T09:55:09.669Z,1.50
2019-01-05T09:58:41.424Z,1.60
2019-01-05T10:02:20.361Z,1.60
2019-01-05T10:06:04.226Z,1.70
2019-01-05T10:09:21.348Z,1.60
2019-01-05T10:12:40.146Z,1.40
2019-01-05T10:16:21.417Z,1.50
2019-01-05T10:20:02.525Z,1.50
2019-01-05T10:23:39.081Z,1.70
2019-01-05T10:27:01.278Z,1.60
2019-01-05T10:30:54.121Z,1.60
2019-01-05T10:34:37.992Z,1.70
2019-01-05T10:38:16.722Z,1.70
2019-01-05T10:41:50.344Z,1.70
2019-01-05T10:44:55.460Z,1.80
2019-01-05T10:48:48.039Z,1.70
2019-01-05T10:52:12.758Z,1.80
2019-01-05T10:55:55.132Z,1.80
2019-01-05T10:58:57.620Z,2.00
2019-01-05T11:02:37.064Z,2.00
2019-01-05T11:06:10.439Z,2.00
2019-01-05T11:09:23.874Z,2.00
2019-01-05T11:12:47.449Z,2.00
2019-01-05T11:16:41.204Z,2.00
2019-01-05T11:20:14.569Z,2.00
2019-01-05T11:23:55.802Z,2.00
2019-01-05T11:31:09.538Z,2.00
2019-01-05T11:34:21.409Z,2.00
2019-01-05T11:37:38.839Z,2.00
2019-01-05T11:41:33.294Z,2.10
2019-01-05T11:45:22.536Z,2.10
2019-01-05T11:48:52.129Z,2.10
2019-01-05T11:52:25.533Z,2.20
2019-01-05T11:55:57.276Z,2.20
2019-01-05T11:59:20.958Z,2.20
2019-01-05T12:02:46.677Z,2.20
2019-01-05T12:06:13.608Z,2.20
2019-01-05T12:09:32.660Z,2.30
2019-01-05T12:12:58.309Z,2.40
2019-01-05T12:16:18.955Z,2.50
2019-01-05T12:19:52.541Z,2.40
2019-01-05T12:23:22.286Z,2.40
2019-01-05T12:26:49.322Z,2.40
2019-01-05T12:30:46.905Z,2.30
2019-01-05T12:34:21.881Z,2.40
2019-01-05T12:37:41.129Z,2.20
2019-01-05T12:40:58.819Z,2.40
2019-01-05T12:44:23.752Z,2.40
2019-01-05T12:48:13.281Z,2.50
2019-01-05T12:51:32.725Z,2.50
2019-01-05T12:57:27.986Z,2.60
2019-01-05T13:01:04.132Z,2.60
2019-01-05T13:04:39.409Z,2.80
2019-01-05T13:08:10.483Z,2.80
2019-01-05T13:11:34.575Z,2.90
2019-01-05T13:14:51.184Z,2.80
2019-01-05T13:18:21.546Z,2.70
2019-01-05T13:21:37.604Z,2.70
2019-01-05T13:25:11.431Z,2.60
2019-01-05T13:28:38.348Z,2.50
2019-01-05T13:32:02.431Z,2.70
2019-01-05T13:35:26.617Z,2.70
2019-01-05T13:38:59.107Z,2.70
2019-01-05T13:42:36.286Z,2.70
2019-01-05T13:46:12.817Z,2.50
2019-01-05T13:49:40.912Z,2.50
2019-01-05T13:53:02.817Z,2.50
2019-01-05T13:56:06.549Z,2.40
2019-01-05T13:59:00.056Z,2.50
2019-01-05T14:01:47.917Z,2.50
2019-01-05T14:04:34.935Z,2.60
2019-01-05T14:07:22.801Z,2.60
2019-01-05T14:10:10.151Z,2.60
2019-01-05T14:12:58.041Z,2.60
2019-01-05T14:15:39.789Z,2.70
2019-01-05T14:18:26.729Z,2.70
2019-01-05T14:21:13.101Z,2.60
2019-01-05T14:23:59.957Z,2.60
2019-01-05T14:26:44.563Z,2.60
2019-01-05T14:29:27.707Z,2.70
2019-01-05T14:32:10.221Z,2.70
2019-01-05T14:35:09.158Z,2.60
2019-01-05T14:37:55.466Z,2.60
2019-01-05T14:40:55.645Z,2.70
2019-01-05T14:43:49.405Z,2.90
2019-01-05T14:46:36.517Z,2.80
2019-01-05T14:49:23.224Z,2.80
2019-01-05T14:52:02.705Z,2.80
2019-01-05T14:54:49.788Z,2.80
2019-01-05T14:57:56.413Z,2.80
2019-01-05T15:00:37.211Z,2.70
2019-01-05T15:03:24.107Z,2.80
2019-01-05T15:06:14.764Z,2.80
2019-01-05T15:09:01.280Z,2.80
2019-01-05T15:11:48.135Z,2.80
2019-01-05T15:14:38.805Z,2.80
2019-01-05T15:17:40.293Z,2.80
2019-01-05T15:20:27.425Z,2.80
2019-01-05T15:23:20.174Z,2.90
2019-01-05T15:26:06.893Z,2.90
2019-01-05T15:29:01.147Z,2.90
2019-01-05T15:31:48.125Z,2.90
2019-01-05T15:34:42.209Z,2.90
2019-01-05T15:37:45.192Z,2.90
2019-01-05T15:40:31.628Z,2.80
2019-01-05T15:43:19.494Z,2.90
2019-01-05T15:46:07.661Z,2.90
2019-01-05T15:49:07.347Z,2.90
2019-01-05T15:52:05.534Z,2.80
2019-01-05T15:54:56.763Z,2.80
2019-01-05T15:57:44.178Z,2.90
2019-01-05T16:00:44.110Z,2.90
2019-01-05T16:03:32.866Z,2.80
2019-01-05T16:06:32.752Z,2.80
2019-01-05T16:09:21.390Z,2.70
2019-01-05T16:12:08.450Z,2.80
2019-01-05T16:15:02.327Z,2.80
2019-01-05T16:17:43.270Z,2.80
2019-01-05T16:20:47.989Z,2.70
2019-01-05T16:23:42.299Z,2.80
2019-01-05T16:26:31.070Z,2.80
2019-01-05T16:29:32.267Z,2.80
2019-01-05T16:32:19.447Z,2.80
2019-01-05T16:35:13.715Z,2.80
2019-01-05T16:38:03.809Z,2.80
2019-01-05T16:43:33.419Z,2.90
2019-01-05T16:46:24.101Z,2.90
2019-01-05T16:49:12.135Z,2.80
2019-01-05T16:52:07.010Z,2.70
2019-01-05T16:55:00.447Z,2.70
2019-01-05T16:58:06.977Z,2.70
2019-01-05T17:01:03.772Z,2.70
2019-01-05T17:03:57.104Z,2.70
2019-01-05T17:06:43.753Z,2.70
2019-01-05T17:09:25.706Z,2.80
2019-01-05T17:12:18.093Z,2.80
2019-01-05T17:15:04.731Z,2.80
2019-01-05T17:17:51.661Z,2.80
2019-01-05T17:20:34.472Z,2.80
2019-01-05T17:23:30.592Z,2.80
2019-01-05T17:26:10.562Z,2.70
2019-01-05T17:28:52.450Z,2.80
2019-01-05T17:31:40.332Z,2.80
2019-01-05T17:34:21.636Z,2.80
2019-01-05T17:37:08.515Z,2.80
2019-01-05T17:40:02.418Z,2.80
2019-01-05T17:42:49.220Z,2.70
2019-01-05T17:45:55.537Z,2.70
2019-01-05T17:48:50.657Z,2.70
2019-01-05T17:51:47.447Z,2.70
2019-01-05T17:54:33.134Z,2.70
2019-01-05T17:57:20.064Z,2.70
2019-01-05T18:00:04.519Z,2.70
2019-01-05T18:03:01.288Z,2.70
2019-01-05T18:05:42.373Z,2.70
2019-01-05T18:08:29.133Z,2.70
2019-01-05T18:11:30.624Z,2.70
2019-01-05T18:14:17.664Z,2.70
2019-01-05T18:17:20.887Z,2.70
2019-01-05T18:20:06.271Z,2.80
2019-01-05T18:22:53.169Z,2.80
2019-01-05T18:25:48.494Z,2.90
2019-01-05T18:28:33.600Z,2.80
2019-01-05T18:31:18.390Z,2.90
2019-01-05T18:34:05.451Z,2.90
2019-01-05T18:36:51.400Z,2.90
2019-01-05T18:39:44.428Z,2.80
2019-01-05T18:42:26.867Z,2.80
2019-01-05T18:45:14.787Z,2.80
2019-01-05T18:48:02.408Z,2.80
2019-01-05T18:50:39.649Z,2.80
2019-01-05T18:53:27.753Z,2.80
2019-01-05T18:56:15.412Z,2.80
2019-01-05T18:59:03.294Z,2.90
2019-01-05T19:01:49.741Z,2.90
2019-01-05T19:04:52.833Z,2.90
2019-01-05T19:07:50.617Z,2.90
2019-01-05T19:10:41.905Z,2.90
2019-01-05T19:13:32.833Z,2.90
2019-01-05T19:16:25.735Z,2.90
2019-01-05T19:19:26.579Z,2.90
2019-01-05T19:22:26.783Z,2.90
2019-01-05T19:25:06.270Z,2.90
2019-01-05T19:27:50.031Z,2.80
2019-01-05T19:30:42.855Z,2.90
2019-01-05T19:33:38.375Z,2.90
2019-01-05T19:36:29.102Z,2.90
2019-01-05T19:39:17.090Z,2.90
2019-01-05T19:42:05.356Z,2.90
2019-01-05T19:44:52.337Z,2.90
2019-01-05T19:47:38.743Z,2.90
2019-01-05T19:50:21.700Z,2.90
2019-01-05T19:53:08.506Z,2.90
2019-01-05T19:56:02.480Z,2.90
2019-01-05T19:59:07.009Z,2.90
2019-01-05T20:01:54.961Z,2.90
2019-01-05T20:05:01.439Z,2.90
2019-01-05T20:07:46.454Z,3.00
2019-01-05T20:10:32.839Z,2.90
2019-01-05T20:13:15.067Z,3.00
2019-01-05T20:16:01.913Z,3.00
2019-01-05T20:18:58.927Z,3.00
2019-01-05T20:21:59.308Z,2.90
2019-01-05T20:24:41.278Z,3.00
2019-01-05T20:27:29.169Z,3.00
2019-01-05T20:30:25.561Z,2.90
2019-01-05T20:44:08.473Z,2.90
2019-01-05T20:46:56.668Z,3.00
2019-01-05T20:49:50.694Z,3.00
2019-01-05T20:52:38.966Z,3.00
2019-01-05T20:55:46.519Z,2.90
2019-01-05T20:58:33.546Z,2.90
2019-01-05T21:01:36.797Z,2.80
2019-01-05T21:04:42.151Z,2.80
2019-01-05T21:07:15.502Z,2.80
2019-01-05T21:10:09.765Z,2.80
2019-01-05T21:12:55.927Z,2.70
2019-01-05T21:15:43.249Z,2.80
2019-01-05T21:18:42.486Z,2.70
2019-01-05T21:21:33.612Z,2.70
2019-01-05T21:24:20.497Z,2.70
2019-01-05T21:27:02.766Z,2.80
2019-01-05T21:30:00.570Z,2.80
2019-01-05T21:32:54.610Z,2.80
2019-01-05T21:35:55.180Z,2.90
2019-01-05T21:38:42.140Z,2.90
2019-01-05T21:41:30.202Z,2.90
2019-01-05T21:44:30.358Z,2.90
2019-01-05T21:47:13.573Z,2.90
2019-01-05T21:50:00.549Z,2.90
2019-01-05T21:52:50.098Z,2.90
2019-01-05T21:55:50.258Z,2.90
2019-01-05T22:05:22.860Z,2.70
2019-01-05T22:08:09.757Z,2.60
2019-01-05T22:10:57.454Z,2.60
2019-01-05T22:30:42.132Z,2.70
2019-01-05T22:33:30.248Z,2.70
2019-01-05T22:36:16.863Z,2.70
2019-01-05T22:39:17.401Z,2.70
2019-01-05T22:42:26.037Z,2.70
2019-01-05T22:45:29.138Z,2.70
2019-01-05T22:48:16.053Z,2.80
2019-01-05T22:51:02.628Z,2.90
2019-01-05T22:53:45.016Z,3.00
2019-01-05T22:56:33.865Z,2.90
2019-01-05T22:59:24.744Z,2.80
2019-01-05T23:02:11.685Z,2.70
2019-01-05T23:04:57.684Z,2.60
2019-01-05T23:07:48.778Z,2.60
2019-01-05T23:10:35.199Z,2.80
2019-01-05T23:13:22.931Z,2.70
2019-01-05T23:16:09.467Z,2.60
2019-01-05T23:18:53.964Z,2.60
2019-01-05T23:21:40.806Z,2.60
2019-01-05T23:24:40.862Z,2.60
2019-01-05T23:27:31.497Z,2.50
2019-01-05T23:30:22.469Z,2.50
2019-01-05T23:33:09.231Z,2.50
2019-01-05T23:36:00.192Z,2.50
2019-01-05T23:38:50.306Z,2.60
2019-01-05T23:41:54.664Z,2.50
2019-01-05T23:44:55.317Z,2.50
2019-01-05T23:47:49.013Z,2.50
2019-01-05T23:50:45.837Z,2.60
2019-01-05T23:53:32.488Z,2.60
2019-01-05T23:56:23.529Z,2.60
2019-01-05T23:59:15.865Z,2.70
